createdAt,value
2019-03-29T00:05:25.909Z,18.47
2019-03-29T00:07:54.523Z,17.67
2019-03-29T00:10:23.145Z,20.53
2019-03-29T00:12:52.063Z,16.67
2019-03-29T00:15:20.696Z,15.87
2019-03-29T00:17:49.505Z,19.90
2019-03-29T00:20:18.111Z,21.97
2019-03-29T00:22:49.498Z,17.17
2019-03-29T00:25:18.113Z,21.93
2019-03-29T00:27:49.902Z,20.70
2019-03-29T00:30:18.455Z,19.83
2019-03-29T00:33:04.746Z,19.87
2019-03-29T00:35:34.124Z,20.93
2019-03-29T00:38:03.081Z,20.53
2019-03-29T00:40:31.748Z,19.90
2019-03-29T00:43:01.187Z,20.60
2019-03-29T00:45:29.831Z,19.90
2019-03-29T00:47:58.437Z,19.90
2019-03-29T00:50:27.418Z,19.10
2019-03-29T00:52:56.068Z,18.93
2019-03-29T00:55:24.678Z,17.23
2019-03-29T00:57:53.286Z,19.47
2019-03-29T01:00:22.102Z,18.70
2019-03-29T01:02:50.668Z,18.90
2019-03-29T01:05:19.322Z,19.00
2019-03-29T01:07:47.939Z,19.70
2019-03-29T01:10:18.201Z,20.33
2019-03-29T01:12:49.471Z,20.37
2019-03-29T01:15:18.205Z,19.87
2019-03-29T01:17:49.997Z,16.70
2019-03-29T01:20:18.649Z,16.93
2019-03-29T01:22:47.210Z,19.50
2019-03-29T01:25:17.385Z,19.03
2019-03-29T01:27:46.319Z,17.80
2019-03-29T01:30:15.134Z,18.33
2019-03-29T01:32:44.880Z,19.90
2019-03-29T01:35:13.783Z,20.87
2019-03-29T01:37:42.405Z,23.33
2019-03-29T01:40:11.309Z,25.77
2019-03-29T01:42:39.865Z,25.63
2019-03-29T01:45:09.763Z,20.07
2019-03-29T01:47:38.366Z,21.63
2019-03-29T01:50:08.132Z,21.73
2019-03-29T01:52:37.403Z,24.60
2019-03-29T01:55:07.227Z,20.93
2019-03-29T01:57:36.126Z,21.67
2019-03-29T02:00:06.433Z,21.50
2019-03-29T02:02:34.994Z,20.30
2019-03-29T02:05:04.917Z,19.13
2019-03-29T02:07:33.490Z,18.60
2019-03-29T02:10:02.072Z,17.80
2019-03-29T02:12:31.018Z,18.97
2019-03-29T02:15:00.047Z,19.60
2019-03-29T02:17:28.666Z,21.10
2019-03-29T02:19:58.104Z,18.00
2019-03-29T02:22:26.716Z,19.17
2019-03-29T02:24:55.337Z,16.93
2019-03-29T02:27:23.945Z,18.90
2019-03-29T02:29:52.560Z,19.50
2019-03-29T02:32:21.432Z,18.30
2019-03-29T02:34:50.093Z,18.43
2019-03-29T02:37:18.706Z,18.63
2019-03-29T02:39:47.418Z,18.27
2019-03-29T02:42:16.362Z,19.60
2019-03-29T02:44:46.809Z,18.30
2019-03-29T02:47:18.187Z,18.67
2019-03-29T02:49:50.195Z,19.03
2019-03-29T02:52:18.753Z,20.03
2019-03-29T02:54:47.403Z,20.13
2019-03-29T02:57:17.652Z,18.80
2019-03-29T02:59:49.438Z,17.23
2019-03-29T03:02:18.048Z,16.70
2019-03-29T03:04:48.304Z,17.43
2019-03-29T03:07:19.972Z,17.73
2019-03-29T03:09:48.701Z,16.87
2019-03-29T03:12:17.324Z,15.53
2019-03-29T03:14:47.462Z,15.37
2019-03-29T03:17:16.233Z,15.47
2019-03-29T03:19:46.560Z,14.97
2019-03-29T03:22:15.185Z,16.63
2019-03-29T03:24:43.801Z,16.07
2019-03-29T03:27:12.410Z,14.20
2019-03-29T03:29:40.998Z,13.50
2019-03-29T03:32:09.569Z,14.53
2019-03-29T03:34:38.203Z,13.07
2019-03-29T03:37:06.792Z,13.77
2019-03-29T03:39:35.497Z,14.50
2019-03-29T03:42:04.207Z,12.90
2019-03-29T03:44:32.818Z,13.60
2019-03-29T03:47:01.427Z,14.80
2019-03-29T03:49:30.042Z,12.90
2019-03-29T03:51:58.854Z,14.90
2019-03-29T03:54:27.667Z,13.70
2019-03-29T03:56:56.589Z,14.60
2019-03-29T03:59:26.527Z,12.63
2019-03-29T04:01:55.131Z,14.00
2019-03-29T04:04:23.841Z,13.30
2019-03-29T04:06:52.451Z,13.57
2019-03-29T04:09:21.046Z,12.17
2019-03-29T04:11:49.624Z,14.33
2019-03-29T04:14:18.287Z,11.90
2019-03-29T04:16:46.899Z,13.57
2019-03-29T04:19:15.511Z,11.50
2019-03-29T04:21:46.450Z,12.67
2019-03-29T04:24:15.215Z,13.30
2019-03-29T04:26:43.824Z,13.17
2019-03-29T04:29:12.430Z,14.40
2019-03-29T04:31:41.040Z,14.30
2019-03-29T04:34:09.655Z,14.20
2019-03-29T04:36:38.265Z,12.90
2019-03-29T04:39:07.080Z,12.03
2019-03-29T04:41:35.706Z,12.77
2019-03-29T04:44:04.597Z,12.10
2019-03-29T04:46:33.324Z,12.57
2019-03-29T04:49:01.936Z,12.67
2019-03-29T04:51:30.813Z,12.57
2019-03-29T04:53:59.459Z,13.27
2019-03-29T04:56:28.071Z,13.10
2019-03-29T04:58:56.681Z,13.80
2019-03-29T05:01:25.358Z,13.27
2019-03-29T05:03:53.946Z,13.30
2019-03-29T05:06:22.611Z,14.03
2019-03-29T05:08:51.216Z,13.43
2019-03-29T05:11:19.772Z,14.13
2019-03-29T05:13:48.435Z,15.20
2019-03-29T05:16:16.995Z,15.87
2019-03-29T05:18:45.659Z,17.20
2019-03-29T05:21:15.154Z,17.40
2019-03-29T05:23:43.804Z,17.80
2019-03-29T05:26:19.836Z,16.77
2019-03-29T05:28:48.737Z,17.10
2019-03-29T05:34:18.700Z,17.87
2019-03-29T05:36:47.262Z,18.23
2019-03-29T05:39:17.623Z,19.60
2019-03-29T05:41:49.313Z,18.57
2019-03-29T05:44:17.972Z,19.03
2019-03-29T05:46:48.177Z,21.13
2019-03-29T05:49:19.870Z,21.70
2019-03-29T05:51:48.478Z,24.07
2019-03-29T05:54:17.089Z,26.50
2019-03-29T05:56:45.696Z,23.27
2019-03-29T05:59:16.999Z,22.53
2019-03-29T06:01:45.569Z,23.07
2019-03-29T06:04:14.513Z,23.10
2019-03-29T06:06:43.116Z,24.30
2019-03-29T06:09:11.832Z,23.47
2019-03-29T06:11:40.462Z,24.30
2019-03-29T06:14:09.049Z,21.97
2019-03-29T06:16:39.301Z,22.97
2019-03-29T06:19:08.143Z,24.90
2019-03-29T06:21:37.766Z,28.03
2019-03-29T06:24:06.376Z,23.70
2019-03-29T06:26:34.984Z,22.47
2019-03-29T06:29:03.576Z,24.90
2019-03-29T06:31:32.520Z,22.40
2019-03-29T06:34:01.128Z,23.20
2019-03-29T06:36:31.800Z,22.10
2019-03-29T06:39:01.741Z,21.50
2019-03-29T06:41:30.296Z,22.60
2019-03-29T06:43:59.293Z,20.57
2019-03-29T06:46:27.915Z,22.40
2019-03-29T06:48:56.950Z,19.47
2019-03-29T06:51:25.500Z,20.30
2019-03-29T06:53:54.173Z,19.43
2019-03-29T06:56:22.812Z,21.30
2019-03-29T06:58:51.415Z,23.30
2019-03-29T07:01:20.032Z,23.10
2019-03-29T07:03:48.747Z,19.67
2019-03-29T07:06:17.359Z,21.00
2019-03-29T07:08:47.548Z,20.93
2019-03-29T07:11:19.406Z,19.93
2019-03-29T07:13:57.492Z,17.83
2019-03-29T07:16:18.368Z,17.87
2019-03-29T07:18:46.976Z,17.73
2019-03-29T07:21:21.534Z,17.50
2019-03-29T07:23:48.056Z,20.60
2019-03-29T07:26:19.488Z,18.73
2019-03-29T07:28:48.447Z,18.37
2019-03-29T07:31:17.113Z,18.93
2019-03-29T07:33:47.264Z,18.63
2019-03-29T07:36:17.424Z,18.13
2019-03-29T07:38:49.019Z,19.30
2019-03-29T07:41:31.174Z,17.53
2019-03-29T07:43:47.900Z,17.80
2019-03-29T07:46:18.160Z,21.47
2019-03-29T07:48:49.612Z,26.30
2019-03-29T07:51:18.196Z,17.77
2019-03-29T07:53:49.740Z,19.40
2019-03-29T07:56:18.351Z,18.20
2019-03-29T07:58:47.375Z,19.40
2019-03-29T08:01:18.919Z,18.50
2019-03-29T08:03:47.580Z,18.73
2019-03-29T08:06:17.241Z,19.90
2019-03-29T08:08:47.358Z,17.80
2019-03-29T08:11:26.124Z,17.57
2019-03-29T08:13:48.231Z,18.83
2019-03-29T08:16:19.470Z,16.23
2019-03-29T08:18:48.389Z,17.87
2019-03-29T08:21:17.624Z,18.70
2019-03-29T08:23:46.212Z,18.70
2019-03-29T08:26:16.497Z,17.30
2019-03-29T08:28:45.464Z,16.87
2019-03-29T08:31:15.856Z,19.23
2019-03-29T08:33:44.826Z,17.77
2019-03-29T08:36:13.465Z,17.53
2019-03-29T08:38:42.082Z,19.50
2019-03-29T08:41:10.723Z,19.30
2019-03-29T08:43:39.844Z,16.93
2019-03-29T08:46:08.572Z,16.17
2019-03-29T08:48:37.179Z,17.33
2019-03-29T08:51:05.919Z,18.70
2019-03-29T08:53:34.558Z,17.87
2019-03-29T08:56:03.302Z,19.90
2019-03-29T08:58:32.027Z,16.43
2019-03-29T09:01:00.840Z,17.73
2019-03-29T09:03:30.025Z,18.57
2019-03-29T09:05:58.664Z,17.83
2019-03-29T09:08:27.633Z,18.33
2019-03-29T09:10:56.386Z,17.67
2019-03-29T09:13:25.148Z,17.23
2019-03-29T09:15:53.812Z,17.03
2019-03-29T09:18:25.740Z,16.40
2019-03-29T09:20:53.127Z,17.70
2019-03-29T09:23:23.363Z,17.27
2019-03-29T09:25:52.499Z,16.30
2019-03-29T09:28:21.112Z,14.40
2019-03-29T09:30:49.715Z,16.20
2019-03-29T09:33:18.323Z,14.77
2019-03-29T09:35:47.037Z,14.63
2019-03-29T09:38:15.666Z,12.93
2019-03-29T09:40:52.202Z,14.20
2019-03-29T09:43:16.568Z,13.20
2019-03-29T09:45:45.714Z,14.50
2019-03-29T09:48:17.305Z,12.10
2019-03-29T09:50:50.449Z,13.10
2019-03-29T09:53:18.212Z,13.47
2019-03-29T09:55:53.163Z,13.37
2019-03-29T09:58:20.049Z,11.70
2019-03-29T10:00:49.268Z,12.63
2019-03-29T10:03:17.997Z,12.90
2019-03-29T10:05:48.115Z,11.07
2019-03-29T10:08:20.062Z,11.40
2019-03-29T10:10:49.017Z,12.33
2019-03-29T10:13:17.626Z,11.17
2019-03-29T10:15:51.282Z,12.17
2019-03-29T10:18:19.581Z,11.03
2019-03-29T10:20:48.421Z,9.57
2019-03-29T10:23:17.069Z,10.10
2019-03-29T10:25:46.169Z,10.80
2019-03-29T10:28:16.900Z,10.20
2019-03-29T10:30:46.862Z,9.83
2019-03-29T10:33:17.251Z,8.43
2019-03-29T10:35:52.293Z,10.13
2019-03-29T10:38:18.378Z,9.90
2019-03-29T10:40:47.344Z,9.60
2019-03-29T10:43:17.581Z,9.10
2019-03-29T10:45:49.393Z,7.27
2019-03-29T10:48:18.214Z,7.57
2019-03-29T10:50:50.889Z,8.37
2019-03-29T10:53:19.467Z,8.30
2019-03-29T10:55:48.418Z,7.90
2019-03-29T10:58:18.641Z,7.30
2019-03-29T11:00:47.275Z,7.33
2019-03-29T11:03:17.349Z,6.87
2019-03-29T11:05:47.474Z,7.90
2019-03-29T11:08:19.400Z,6.17
2019-03-29T11:10:48.104Z,6.90
2019-03-29T11:13:18.301Z,5.07
2019-03-29T11:15:49.665Z,5.50
2019-03-29T11:18:18.231Z,5.70
2019-03-29T11:20:50.377Z,5.17
2019-03-29T11:23:19.087Z,4.93
2019-03-29T11:25:48.841Z,5.17
2019-03-29T11:28:17.753Z,3.60
2019-03-29T11:30:46.779Z,3.90
2019-03-29T11:33:18.168Z,4.10
2019-03-29T11:35:50.174Z,3.37
2019-03-29T11:38:18.734Z,3.57
2019-03-29T11:40:47.290Z,3.40
2019-03-29T11:43:26.454Z,3.87
2019-03-29T11:45:48.015Z,3.83
2019-03-29T11:48:38.772Z,2.97
2019-03-29T11:51:18.629Z,3.17
2019-03-29T11:53:39.880Z,2.77
2019-03-29T11:56:08.317Z,2.70
2019-03-29T11:58:37.028Z,2.93
2019-03-29T12:01:05.751Z,2.90
2019-03-29T12:03:34.555Z,2.63
2019-03-29T12:06:03.165Z,2.67
2019-03-29T12:08:31.747Z,3.77
2019-03-29T12:11:00.794Z,2.07
2019-03-29T12:13:40.475Z,2.40
2019-03-29T12:15:59.760Z,2.87
2019-03-29T12:18:28.369Z,2.63
2019-03-29T12:20:57.077Z,2.67
2019-03-29T12:23:26.002Z,2.30
2019-03-29T12:25:54.719Z,2.60
2019-03-29T12:28:23.335Z,1.90
2019-03-29T12:30:51.949Z,2.13
2019-03-29T12:33:20.991Z,2.00
2019-03-29T12:35:49.703Z,2.60
2019-03-29T12:38:18.275Z,2.50
2019-03-29T12:40:47.552Z,2.87
2019-03-29T12:43:18.860Z,2.77
2019-03-29T12:45:47.469Z,2.57
2019-03-29T12:48:18.963Z,3.90
2019-03-29T12:50:47.575Z,3.00
2019-03-29T12:53:18.948Z,2.27
2019-03-29T12:55:47.658Z,2.27
2019-03-29T12:58:16.339Z,2.40
2019-03-29T13:00:46.732Z,2.73
2019-03-29T13:03:18.235Z,2.73
2019-03-29T13:05:50.081Z,3.07
2019-03-29T13:08:18.634Z,2.60
2019-03-29T13:10:47.432Z,3.03
2019-03-29T13:13:18.821Z,3.00
2019-03-29T13:15:47.541Z,3.53
2019-03-29T13:18:19.136Z,3.40
2019-03-29T13:20:47.858Z,3.20
2019-03-29T13:23:17.123Z,2.77
2019-03-29T13:25:45.801Z,3.00
2019-03-29T13:28:17.204Z,2.93
2019-03-29T13:30:47.460Z,2.97
2019-03-29T13:33:20.767Z,2.90
2019-03-29T13:36:08.630Z,3.00
2019-03-29T13:41:31.173Z,2.87
2019-03-29T13:44:03.783Z,2.83
2019-03-29T13:46:38.327Z,2.80
2019-03-29T13:49:06.904Z,2.83
2019-03-29T13:51:35.979Z,3.30
2019-03-29T13:54:10.006Z,3.77
2019-03-29T13:56:39.050Z,2.87
2019-03-29T13:59:11.556Z,3.10
2019-03-29T14:01:41.008Z,2.83
2019-03-29T14:04:09.611Z,3.17
2019-03-29T14:06:38.431Z,4.03
2019-03-29T14:09:07.990Z,3.30
2019-03-29T14:11:37.100Z,2.97
2019-03-29T14:14:05.710Z,3.10
2019-03-29T14:16:34.324Z,3.37
2019-03-29T14:19:03.197Z,2.60
2019-03-29T14:21:39.058Z,3.53
2019-03-29T14:24:07.016Z,2.63
2019-03-29T14:26:36.035Z,2.80
2019-03-29T14:29:16.971Z,3.17
2019-03-29T14:31:54.187Z,3.83
2019-03-29T14:34:22.675Z,4.23
2019-03-29T14:36:51.292Z,3.80
2019-03-29T14:39:19.900Z,3.90
2019-03-29T14:41:48.622Z,3.87
2019-03-29T14:44:17.474Z,3.80
2019-03-29T14:46:48.827Z,4.47
2019-03-29T14:49:17.378Z,3.90
2019-03-29T14:51:47.604Z,4.70
2019-03-29T14:54:19.496Z,4.80
2019-03-29T14:56:48.105Z,4.20
2019-03-29T14:59:18.200Z,4.97
2019-03-29T15:01:49.508Z,5.00
2019-03-29T15:04:18.351Z,4.80
2019-03-29T15:06:47.174Z,5.10
2019-03-29T15:09:16.101Z,4.70
2019-03-29T15:11:44.921Z,4.33
2019-03-29T15:14:15.524Z,4.77
2019-03-29T15:16:44.605Z,4.70
2019-03-29T15:19:13.210Z,4.73
2019-03-29T15:21:41.824Z,4.43
2019-03-29T15:24:10.454Z,5.30
2019-03-29T15:26:39.049Z,6.57
2019-03-29T15:29:07.671Z,5.43
2019-03-29T15:31:36.287Z,5.70
2019-03-29T15:34:10.815Z,5.43
2019-03-29T15:36:39.515Z,4.93
2019-03-29T15:39:08.378Z,6.23
2019-03-29T15:41:36.954Z,5.30
2019-03-29T15:44:05.499Z,7.70
2019-03-29T15:46:34.116Z,6.40
2019-03-29T15:49:02.671Z,6.73
2019-03-29T15:51:31.349Z,5.30
2019-03-29T15:54:00.082Z,5.60
2019-03-29T15:56:28.712Z,5.97
2019-03-29T15:58:57.272Z,5.53
2019-03-29T16:01:25.854Z,6.03
2019-03-29T16:03:54.492Z,5.50
2019-03-29T16:06:23.074Z,5.67
2019-03-29T16:08:51.629Z,4.90
2019-03-29T16:11:22.529Z,4.43
2019-03-29T16:13:50.506Z,4.43
2019-03-29T16:16:19.115Z,6.73
2019-03-29T16:18:47.745Z,5.90
2019-03-29T16:21:16.729Z,6.20
2019-03-29T16:23:48.368Z,5.33
2019-03-29T16:26:16.993Z,5.50
2019-03-29T16:28:45.952Z,5.23
2019-03-29T16:31:14.703Z,5.37
2019-03-29T16:33:43.837Z,5.80
2019-03-29T16:36:12.575Z,4.23
2019-03-29T16:38:41.223Z,3.90
2019-03-29T16:41:09.770Z,4.53
2019-03-29T16:43:38.359Z,4.97
2019-03-29T16:46:07.386Z,5.30
2019-03-29T16:48:36.035Z,4.90
2019-03-29T16:51:04.660Z,5.20
2019-03-29T16:53:33.310Z,6.10
2019-03-29T16:56:02.341Z,5.67
2019-03-29T16:58:31.395Z,4.77
2019-03-29T17:00:59.992Z,4.23
2019-03-29T17:03:28.623Z,4.07
2019-03-29T17:05:57.259Z,5.70
2019-03-29T17:08:25.828Z,5.13
2019-03-29T17:10:54.388Z,4.67
2019-03-29T17:13:22.976Z,4.93
2019-03-29T17:16:01.845Z,4.10
2019-03-29T17:18:29.089Z,5.70
2019-03-29T17:20:52.743Z,4.43
2019-03-29T17:23:21.374Z,4.17
2019-03-29T17:25:50.251Z,4.53
2019-03-29T17:28:18.814Z,5.70
2019-03-29T17:30:49.010Z,4.80
2019-03-29T17:33:17.583Z,3.93
2019-03-29T17:35:47.857Z,4.43
2019-03-29T17:38:17.497Z,4.20
2019-03-29T17:40:48.790Z,4.30
2019-03-29T17:43:17.369Z,3.90
2019-03-29T17:45:47.431Z,3.43
2019-03-29T17:48:19.456Z,3.90
2019-03-29T17:50:48.379Z,3.30
2019-03-29T17:53:16.935Z,3.80
2019-03-29T17:55:45.507Z,3.60
2019-03-29T17:58:14.231Z,3.80
2019-03-29T18:00:42.826Z,3.77
2019-03-29T18:03:12.144Z,3.60
2019-03-29T18:05:41.062Z,4.00
2019-03-29T18:08:09.844Z,3.60
2019-03-29T18:10:38.654Z,3.70
2019-03-29T18:13:07.464Z,4.30
2019-03-29T18:15:36.665Z,3.90
2019-03-29T18:18:05.441Z,4.57
2019-03-29T18:20:34.155Z,3.80
2019-03-29T18:23:02.712Z,3.60
2019-03-29T18:25:31.736Z,4.03
2019-03-29T18:28:00.758Z,3.57
2019-03-29T18:30:38.878Z,4.13
2019-03-29T18:33:08.117Z,3.83
2019-03-29T18:35:36.835Z,4.00
2019-03-29T18:38:05.894Z,3.90
2019-03-29T18:40:34.534Z,4.20
2019-03-29T18:43:03.231Z,4.00
2019-03-29T18:45:31.866Z,3.80
2019-03-29T18:48:00.617Z,4.20
2019-03-29T18:50:29.247Z,4.30
2019-03-29T18:52:58.188Z,4.63
2019-03-29T18:55:26.767Z,5.17
2019-03-29T18:57:55.699Z,4.70
2019-03-29T19:00:29.610Z,4.63
2019-03-29T19:02:58.240Z,4.73
2019-03-29T19:05:27.714Z,4.93
2019-03-29T19:07:56.249Z,5.57
2019-03-29T19:10:24.804Z,4.47
2019-03-29T19:12:53.420Z,5.67
2019-03-29T19:15:22.440Z,4.90
2019-03-29T19:17:51.154Z,6.17
2019-03-29T19:20:27.216Z,6.30
2019-03-29T19:22:50.003Z,6.27
2019-03-29T19:25:18.574Z,7.20
2019-03-29T19:27:47.586Z,8.77
2019-03-29T19:30:16.733Z,8.17
2019-03-29T19:32:46.166Z,8.10
2019-03-29T19:35:16.629Z,7.47
2019-03-29T19:37:48.901Z,7.77
2019-03-29T19:40:18.545Z,7.83
2019-03-29T19:42:47.705Z,7.50
2019-03-29T19:45:18.958Z,7.20
2019-03-29T19:47:47.617Z,6.70
2019-03-29T19:50:17.607Z,7.10
2019-03-29T19:52:46.191Z,8.03
2019-03-29T19:55:16.486Z,10.00
2019-03-29T19:57:46.591Z,10.93
2019-03-29T20:00:17.224Z,12.60
2019-03-29T20:02:47.394Z,12.23
2019-03-29T20:05:27.466Z,11.60
2019-03-29T20:07:56.380Z,11.87
2019-03-29T20:10:25.426Z,15.63
2019-03-29T20:12:54.275Z,14.60
2019-03-29T20:15:24.392Z,25.60
2019-03-29T20:17:53.144Z,23.97
2019-03-29T20:20:26.278Z,25.80
2019-03-29T20:22:56.003Z,24.20
2019-03-29T20:25:25.105Z,21.87
2019-03-29T20:27:57.991Z,21.30
2019-03-29T20:30:25.253Z,20.07
2019-03-29T20:32:54.224Z,16.80
2019-03-29T20:35:22.765Z,18.03
2019-03-29T20:37:51.851Z,13.30
2019-03-29T20:40:20.399Z,13.93
2019-03-29T20:42:48.979Z,12.50
2019-03-29T20:45:17.600Z,11.03
2019-03-29T20:47:46.322Z,9.07
2019-03-29T20:50:18.372Z,9.40
2019-03-29T20:52:47.410Z,8.90
2019-03-29T20:55:18.723Z,8.47
2019-03-29T20:57:47.308Z,9.50
2019-03-29T21:00:17.078Z,8.90
2019-03-29T21:02:45.724Z,8.27
2019-03-29T21:05:17.161Z,7.23
2019-03-29T21:07:47.262Z,7.97
2019-03-29T21:10:18.802Z,7.90
2019-03-29T21:12:47.582Z,7.23
2019-03-29T21:15:16.320Z,14.20
2019-03-29T21:17:56.687Z,10.00
2019-03-29T21:20:16.992Z,15.20
2019-03-29T21:22:45.578Z,12.47
2019-03-29T21:25:17.029Z,9.33
2019-03-29T21:27:45.612Z,9.30
2019-03-29T21:30:15.808Z,7.77
2019-03-29T21:32:45.516Z,8.80
2019-03-29T21:35:16.195Z,9.30
2019-03-29T21:37:46.512Z,7.43
2019-03-29T21:40:18.494Z,8.87
2019-03-29T21:42:47.076Z,8.70
2019-03-29T21:45:28.065Z,9.90
2019-03-29T21:48:01.534Z,8.93
2019-03-29T21:50:18.385Z,9.30
2019-03-29T21:52:47.453Z,9.23
2019-03-29T21:55:18.822Z,10.60
2019-03-29T21:57:47.397Z,8.70
2019-03-29T22:00:19.053Z,8.50
2019-03-29T22:02:47.606Z,8.90
2019-03-29T22:05:19.227Z,9.87
2019-03-29T22:07:47.778Z,8.60
2019-03-29T22:10:16.511Z,9.90
2019-03-29T22:12:45.134Z,8.80
2019-03-29T22:15:16.392Z,9.07
2019-03-29T22:17:45.016Z,9.47
2019-03-29T22:20:14.008Z,8.67
2019-03-29T22:22:42.569Z,7.40
2019-03-29T22:25:11.277Z,7.70
2019-03-29T22:27:40.225Z,7.83
2019-03-29T22:30:11.164Z,7.60
2019-03-29T22:32:40.110Z,8.27
2019-03-29T22:35:09.229Z,7.53
2019-03-29T22:37:37.850Z,7.90
2019-03-29T22:40:10.233Z,7.73
2019-03-29T22:42:38.788Z,8.80
2019-03-29T22:45:09.484Z,8.73
2019-03-29T22:47:38.204Z,8.20
2019-03-29T22:50:08.188Z,7.20
2019-03-29T22:52:36.757Z,8.50
2019-03-29T22:55:09.561Z,10.13
2019-03-29T22:57:38.121Z,9.27
2019-03-29T23:00:44.016Z,9.73
2019-03-29T23:03:12.711Z,8.67
2019-03-29T23:05:41.288Z,8.43
2019-03-29T23:08:09.992Z,8.10
2019-03-29T23:10:38.574Z,7.20
2019-03-29T23:13:07.137Z,7.67
2019-03-29T23:15:35.923Z,8.37
2019-03-29T23:18:04.549Z,6.80
2019-03-29T23:20:33.135Z,7.20
2019-03-29T23:23:01.688Z,7.13
2019-03-29T23:25:30.276Z,6.13
2019-03-29T23:27:58.902Z,7.07
2019-03-29T23:30:27.481Z,6.90
2019-03-29T23:32:56.042Z,6.60
2019-03-29T23:35:24.619Z,6.97
2019-03-29T23:37:53.250Z,8.20
2019-03-29T23:40:21.835Z,8.40
2019-03-29T23:42:50.404Z,7.90
2019-03-29T23:45:18.984Z,8.17
2019-03-29T23:47:47.537Z,8.67
2019-03-29T23:50:19.225Z,8.20
2019-03-29T23:52:47.780Z,9.57
2019-03-29T23:55:16.435Z,8.90
2019-03-29T23:57:44.988Z,9.80
